Time;durP1;ratioP1;P1;durP2;ratioP2;P2;SDS_P1;SDS_P2;PMS_P1;PMS_P2;Temp;Humidity;BMP_temperature;BMP_pressure;BME280_temperature;BME280_humidity;BME280_pressure;Samples;Min_cycle;Max_cycle;Signal;HPM_P1;HPM_P2
2022/07/11 00:01:15;;;;;;;5.65;3.13;;;21.40;58.00;;;;;;4979317;28;20498;-47
2022/07/11 00:03:44;;;;;;;5.22;3.38;;;21.40;58.00;;;;;;4986232;28;20671;-49
2022/07/11 00:06:14;;;;;;;6.13;2.88;;;21.40;58.00;;;;;;4992592;28;20047;-50
2022/07/11 00:08:41;;;;;;;6.07;2.78;;;21.40;58.10;;;;;;4984779;28;20065;-47
2022/07/11 00:11:08;;;;;;;3.22;2.75;;;21.40;58.00;;;;;;4985034;28;20050;-50
2022/07/11 00:13:37;;;;;;;4.15;2.42;;;21.40;58.10;;;;;;4983423;28;20053;-51
2022/07/11 00:16:07;;;;;;;5.70;2.95;;;21.40;58.30;;;;;;4985937;28;20050;-47
2022/07/11 00:18:38;;;;;;;4.32;2.88;;;21.40;58.20;;;;;;4993519;28;20050;-48
2022/07/11 00:21:09;;;;;;;5.20;3.20;;;21.40;58.20;;;;;;4985882;28;20046;-51
2022/07/11 00:23:38;;;;;;;5.38;2.63;;;21.30;58.20;;;;;;4973853;28;20047;-50
2022/07/11 00:26:06;;;;;;;5.07;3.42;;;21.30;58.20;;;;;;4967411;28;20125;-48
2022/07/11 00:28:32;;;;;;;3.47;3.17;;;21.30;58.30;;;;;;4978958;28;20101;-47
2022/07/11 00:30:59;;;;;;;3.42;2.83;;;21.30;58.30;;;;;;4970910;28;20070;-49
2022/07/11 00:33:26;;;;;;;5.20;4.32;;;21.30;58.40;;;;;;4986379;28;20078;-48
2022/07/11 00:35:55;;;;;;;5.07;3.42;;;21.30;58.50;;;;;;4990056;28;20070;-51
2022/07/11 00:38:22;;;;;;;4.10;3.55;;;21.30;58.60;;;;;;4983822;28;20062;-48
2022/07/11 00:40:48;;;;;;;6.35;4.10;;;21.30;58.60;;;;;;4983323;28;20061;-47
2022/07/11 00:43:19;;;;;;;5.15;3.53;;;21.30;58.60;;;;;;4985014;28;20046;-47
2022/07/11 00:45:50;;;;;;;7.28;3.85;;;21.20;58.70;;;;;;4988183;28;20502;-47
2022/07/11 00:48:21;;;;;;;5.50;3.15;;;21.30;59.00;;;;;;4980468;28;20398;-53
2022/07/11 00:50:49;;;;;;;4.45;3.20;;;21.20;58.80;;;;;;4979152;28;20035;-51
2022/07/11 00:53:20;;;;;;;4.25;3.38;;;21.20;58.80;;;;;;4985046;28;20552;-48
2022/07/11 00:55:48;;;;;;;5.05;3.50;;;21.20;58.80;;;;;;4992884;28;20081;-47
2022/07/11 00:58:17;;;;;;;5.70;3.88;;;21.20;58.70;;;;;;4978941;28;20092;-47
2022/07/11 01:00:46;;;;;;;4.13;3.72;;;21.20;58.70;;;;;;4977566;28;20061;-51
2022/07/11 01:03:13;;;;;;;5.22;3.80;;;21.10;58.80;;;;;;4992576;28;20051;-47
2022/07/11 01:05:40;;;;;;;3.47;3.17;;;21.10;58.90;;;;;;4983549;28;20411;-49
2022/07/11 01:08:07;;;;;;;4.25;3.22;;;21.10;59.00;;;;;;4976894;28;20562;-53
2022/07/11 01:10:34;;;;;;;4.40;4.00;;;21.00;58.90;;;;;;4981210;28;20061;-48
2022/07/11 01:13:03;;;;;;;4.82;3.53;;;20.90;59.00;;;;;;4984764;28;20066;-49
2022/07/11 01:15:35;;;;;;;4.47;3.50;;;20.90;59.00;;;;;;4992726;28;20052;-53
2022/07/11 01:18:03;;;;;;;6.20;4.00;;;20.80;59.20;;;;;;4978816;28;20089;-49
2022/07/11 01:20:31;;;;;;;4.13;3.45;;;20.70;59.30;;;;;;4984484;28;20105;-52
2022/07/11 01:23:06;;;;;;;3.80;3.30;;;20.70;59.30;;;;;;4979871;28;20055;-47
2022/07/11 01:25:34;;;;;;;5.25;3.70;;;20.60;59.60;;;;;;4980889;28;20061;-49
2022/07/11 01:28:06;;;;;;;5.15;3.42;;;20.50;59.40;;;;;;4975047;28;20070;-47
2022/07/11 01:30:35;;;;;;;4.60;3.60;;;20.40;59.40;;;;;;4984697;28;20034;-50
2022/07/11 01:33:02;;;;;;;3.35;3.00;;;20.30;59.30;;;;;;4975455;28;20046;-52
2022/07/11 01:35:29;;;;;;;5.22;3.45;;;20.20;59.40;;;;;;4988517;28;20097;-49
2022/07/11 01:37:59;;;;;;;3.72;2.90;;;20.20;59.40;;;;;;4977917;28;20089;-50
2022/07/11 01:40:31;;;;;;;3.80;3.50;;;20.10;59.60;;;;;;4984619;28;20047;-50
2022/07/11 01:42:58;;;;;;;4.70;3.47;;;20.00;59.70;;;;;;4992584;28;20092;-46
2022/07/11 01:45:27;;;;;;;4.32;3.25;;;19.90;59.60;;;;;;4975336;28;20050;-47
2022/07/11 01:48:01;;;;;;;4.38;3.97;;;19.80;59.60;;;;;;4983992;28;20038;-46
2022/07/11 01:50:30;;;;;;;4.18;3.72;;;19.70;59.70;;;;;;4985732;28;20097;-51
2022/07/11 01:52:56;;;;;;;4.25;3.72;;;19.60;59.90;;;;;;4992538;28;20077;-46
2022/07/11 01:55:25;;;;;;;3.33;3.03;;;19.60;59.90;;;;;;4977913;28;20537;-51
2022/07/11 01:57:52;;;;;;;3.88;3.13;;;19.50;60.00;;;;;;4980388;28;20042;-50
2022/07/11 02:00:23;;;;;;;3.50;3.20;;;19.50;60.20;;;;;;4936586;29;20047;-48
2022/07/11 02:02:50;;;;;;;3.70;3.15;;;19.40;60.50;;;;;;4967130;28;20043;-48
2022/07/11 02:05:17;;;;;;;4.75;3.42;;;19.30;60.30;;;;;;4978185;28;20555;-53
2022/07/11 02:10:29;;;;;;;4.18;2.95;;;19.20;60.60;;;;;;4953646;29;20588;-48
2022/07/11 02:13:00;;;;;;;4.32;3.05;;;19.20;60.40;;;;;;4954012;28;20039;-48
2022/07/11 02:15:29;;;;;;;3.80;3.25;;;19.10;60.80;;;;;;4982892;28;20038;-48
2022/07/11 02:18:02;;;;;;;3.90;3.45;;;19.10;60.60;;;;;;4983675;28;20513;-49
2022/07/11 02:20:33;;;;;;;3.25;2.90;;;19.00;60.50;;;;;;4991962;28;20053;-49
2022/07/11 02:23:06;;;;;;;3.45;2.90;;;18.90;60.80;;;;;;4953578;28;20065;-47
2022/07/11 02:25:38;;;;;;;3.72;3.22;;;18.90;60.70;;;;;;4974018;28;20045;-47
2022/07/11 02:28:09;;;;;;;4.53;3.20;;;18.80;60.60;;;;;;4979121;28;20073;-46
2022/07/11 02:30:39;;;;;;;3.20;2.90;;;18.80;61.00;;;;;;4969938;28;20043;-50
2022/07/11 02:33:07;;;;;;;3.25;3.05;;;18.70;60.90;;;;;;4975771;28;20038;-47
2022/07/11 02:35:37;;;;;;;3.55;2.97;;;18.70;61.00;;;;;;4983530;28;20374;-50
2022/07/11 02:38:06;;;;;;;3.05;2.85;;;18.70;61.00;;;;;;4991365;28;20517;-51
2022/07/11 02:40:35;;;;;;;4.07;3.08;;;18.60;61.00;;;;;;4979024;28;20073;-47
2022/07/11 02:43:03;;;;;;;2.75;2.55;;;18.70;61.20;;;;;;4975455;28;20050;-47
2022/07/11 02:45:36;;;;;;;4.07;3.65;;;18.50;61.30;;;;;;4983279;28;20046;-47
2022/07/11 02:48:06;;;;;;;3.80;3.28;;;18.50;61.80;;;;;;4991453;28;20053;-49
2022/07/11 02:50:35;;;;;;;4.30;3.67;;;18.60;62.20;;;;;;4991660;28;20093;-47
2022/07/11 02:53:02;;;;;;;5.15;3.88;;;18.50;62.90;;;;;;4974222;28;20178;-47
2022/07/11 02:55:29;;;;;;;5.20;3.53;;;18.60;63.50;;;;;;4978006;28;20038;-47
2022/07/11 02:58:04;;;;;;;7.68;3.80;;;18.60;63.90;;;;;;4971938;28;20399;-50
2022/07/11 03:00:31;;;;;;;5.05;3.78;;;18.60;64.90;;;;;;4970964;28;20089;-47
2022/07/11 03:02:58;;;;;;;5.35;3.75;;;18.70;64.50;;;;;;4982556;28;20042;-50
2022/07/11 03:05:25;;;;;;;4.07;3.67;;;18.70;64.60;;;;;;4984004;28;20046;-47
2022/07/11 03:07:53;;;;;;;3.88;3.42;;;18.70;65.20;;;;;;4984442;28;20051;-47
2022/07/11 03:10:23;;;;;;;5.85;4.40;;;18.80;64.70;;;;;;4966979;28;20128;-46
2022/07/11 03:12:50;;;;;;;6.47;4.15;;;18.80;64.60;;;;;;4980784;28;20043;-47
2022/07/11 03:15:21;;;;;;;4.80;3.95;;;18.90;64.80;;;;;;4975765;28;20045;-47
2022/07/11 03:17:47;;;;;;;6.40;4.45;;;18.90;64.80;;;;;;4991846;28;20454;-47
2022/07/11 03:20:14;;;;;;;6.18;5.20;;;18.90;64.90;;;;;;4978116;28;20568;-47
2022/07/11 03:22:41;;;;;;;4.85;4.40;;;19.00;65.10;;;;;;4977310;28;20058;-46
2022/07/11 03:25:10;;;;;;;8.10;5.38;;;19.00;65.30;;;;;;4976984;28;20499;-49
2022/07/11 03:27:39;;;;;;;6.07;5.17;;;19.10;65.50;;;;;;4982202;28;20038;-47
2022/07/11 03:30:07;;;;;;;6.05;5.45;;;19.10;65.40;;;;;;4967287;28;20050;-46
2022/07/11 03:32:34;;;;;;;6.18;4.65;;;19.20;65.60;;;;;;4977363;28;20042;-50
2022/07/11 03:37:47;;;;;;;5.95;4.70;;;19.30;65.80;;;;;;4961378;28;20050;-47
2022/07/11 03:40:14;;;;;;;5.45;4.50;;;19.30;65.60;;;;;;4977105;28;20758;-47
2022/07/11 03:42:48;;;;;;;7.55;4.60;;;19.40;65.70;;;;;;4983303;28;20046;-46
2022/07/11 03:45:15;;;;;;;6.47;5.05;;;19.40;65.60;;;;;;4983907;28;20050;-46
2022/07/11 03:47:41;;;;;;;5.70;4.95;;;19.50;65.60;;;;;;4977912;28;20446;-49
2022/07/11 03:50:08;;;;;;;7.30;4.65;;;19.60;65.70;;;;;;4983545;28;20383;-46
2022/07/11 03:52:37;;;;;;;7.55;4.57;;;19.60;65.70;;;;;;4987479;28;20046;-47
2022/07/11 03:55:16;;;;;;;6.13;4.70;;;19.60;65.90;;;;;;4983356;28;20117;-50
2022/07/11 03:57:45;;;;;;;6.88;4.18;;;19.70;65.60;;;;;;4976447;28;20042;-47
2022/07/11 04:00:12;;;;;;;5.28;4.35;;;19.70;65.60;;;;;;4983017;28;20110;-46
2022/07/11 04:02:48;;;;;;;6.20;4.63;;;19.70;65.60;;;;;;4991465;28;20104;-48
2022/07/11 04:05:18;;;;;;;8.07;4.68;;;19.80;65.60;;;;;;4979758;28;20050;-48
2022/07/11 04:07:45;;;;;;;5.53;4.55;;;19.80;65.50;;;;;;4982808;28;20514;-51
2022/07/11 04:10:12;;;;;;;6.57;4.50;;;19.80;65.50;;;;;;4986474;28;20046;-47
2022/07/11 04:12:43;;;;;;;5.35;4.85;;;19.80;65.50;;;;;;4993776;28;20085;-52
2022/07/11 04:15:15;;;;;;;5.38;4.00;;;19.90;65.60;;;;;;4977753;28;20070;-56
2022/07/11 04:17:43;;;;;;;4.95;4.53;;;19.90;65.70;;;;;;4984461;28;20046;-51
2022/07/11 04:20:13;;;;;;;6.93;4.63;;;19.90;65.30;;;;;;4986829;28;20420;-50
2022/07/11 04:22:40;;;;;;;6.57;4.18;;;20.00;65.40;;;;;;4994849;28;20046;-50
2022/07/11 04:25:08;;;;;;;4.93;4.40;;;20.00;65.40;;;;;;4970518;28;20050;-47
2022/07/11 04:27:35;;;;;;;4.97;4.05;;;20.00;65.40;;;;;;4982539;28;20441;-48
2022/07/11 04:30:07;;;;;;;5.17;3.67;;;20.00;65.30;;;;;;4993137;28;20576;-51
2022/07/11 04:32:36;;;;;;;6.00;4.05;;;20.10;65.30;;;;;;4979618;28;20125;-51
2022/07/11 04:35:06;;;;;;;4.43;3.85;;;20.10;65.30;;;;;;4980413;28;20053;-47
2022/07/11 04:37:35;;;;;;;6.72;3.80;;;20.10;65.30;;;;;;4983919;28;20450;-50
2022/07/11 04:40:03;;;;;;;4.35;3.60;;;20.10;65.20;;;;;;4992499;28;20093;-47
2022/07/11 04:42:37;;;;;;;7.80;3.35;;;20.20;65.20;;;;;;5030784;23;20136;-47
2022/07/11 04:45:13;;;;;;;5.32;3.35;;;20.20;65.10;;;;;;5033937;28;20382;-46
2022/07/11 04:47:47;;;;;;;3.38;3.08;;;20.20;65.20;;;;;;5033333;28;20043;-52
2022/07/11 04:50:14;;;;;;;;;;;20.20;65.20;;;;;;5034266;28;20042;-47
2022/07/11 04:52:44;;;;;;;3.70;2.90;;;20.30;65.00;;;;;;5024023;28;19921;-50
2022/07/11 04:55:16;;;;;;;2.70;2.50;;;20.30;64.80;;;;;;5037933;28;20416;-47
2022/07/11 04:57:42;;;;;;;2.47;2.28;;;20.30;65.00;;;;;;5043850;28;20052;-46
2022/07/11 05:00:09;;;;;;;4.00;2.55;;;20.30;64.90;;;;;;5052916;28;20114;-51
2022/07/11 05:02:36;;;;;;;3.10;2.38;;;20.40;65.00;;;;;;5041632;28;20048;-48
2022/07/11 05:05:03;;;;;;;3.20;2.05;;;20.40;65.00;;;;;;5042775;28;20069;-48
2022/07/11 05:07:32;;;;;;;3.25;2.58;;;20.40;65.00;;;;;;5052964;28;20037;-50
2022/07/11 05:09:59;;;;;;;5.63;2.45;;;20.50;65.20;;;;;;5051275;28;20413;-48
2022/07/11 05:12:26;;;;;;;4.13;2.40;;;20.50;65.00;;;;;;5025907;28;20440;-51
2022/07/11 05:15:00;;;;;;;3.55;2.45;;;20.50;64.90;;;;;;5044465;28;20042;-52
2022/07/11 05:17:28;;;;;;;4.78;2.42;;;20.50;65.10;;;;;;5052895;28;20119;-51
2022/07/11 05:19:57;;;;;;;4.07;2.30;;;20.60;65.00;;;;;;5052759;28;20060;-52
2022/07/11 05:22:29;;;;;;;3.65;2.20;;;20.60;64.90;;;;;;5032190;28;20120;-52
2022/07/11 05:24:55;;;;;;;3.60;3.25;;;20.70;64.80;;;;;;5040404;28;20047;-50
2022/07/11 05:27:22;;;;;;;2.40;2.20;;;20.70;64.70;;;;;;5032583;28;20076;-48
2022/07/11 05:29:51;;;;;;;4.72;2.40;;;20.70;64.70;;;;;;5030662;28;20064;-51
2022/07/11 05:32:20;;;;;;;4.05;2.67;;;20.80;64.50;;;;;;5039880;28;20044;-49
2022/07/11 05:34:49;;;;;;;4.55;2.72;;;20.80;64.40;;;;;;5044542;28;20049;-51
2022/07/11 05:37:17;;;;;;;3.47;2.50;;;20.80;64.40;;;;;;5052473;28;20087;-50
2022/07/11 05:39:46;;;;;;;3.00;2.42;;;20.90;64.40;;;;;;5041010;28;20052;-52
2022/07/11 05:42:15;;;;;;;4.47;3.78;;;20.90;64.20;;;;;;5046306;28;20042;-51
2022/07/11 05:44:47;;;;;;;4.68;3.03;;;20.90;64.00;;;;;;5047845;28;20041;-50
2022/07/11 05:47:17;;;;;;;5.65;3.03;;;20.90;63.90;;;;;;5052466;28;20099;-50
2022/07/11 05:49:48;;;;;;;6.13;3.97;;;20.90;63.90;;;;;;5039582;28;20030;-49
2022/07/11 05:52:15;;;;;;;4.47;3.88;;;20.90;63.90;;;;;;5044424;28;20037;-50
2022/07/11 05:54:42;;;;;;;5.90;3.92;;;20.90;63.80;;;;;;5047096;28;20041;-49
2022/07/11 05:57:11;;;;;;;6.95;4.47;;;20.90;63.80;;;;;;5050977;28;20466;-52
2022/07/11 05:59:38;;;;;;;8.52;4.30;;;20.90;63.90;;;;;;5034618;28;20475;-52
2022/07/11 06:02:07;;;;;;;5.72;4.63;;;20.90;63.90;;;;;;5041783;28;20056;-51
2022/07/11 06:04:37;;;;;;;5.47;4.22;;;20.90;64.00;;;;;;5051030;28;20407;-47
2022/07/11 06:07:04;;;;;;;8.93;4.63;;;20.90;64.00;;;;;;5033112;28;20038;-52
2022/07/11 06:09:32;;;;;;;5.47;4.10;;;20.90;64.00;;;;;;5030573;28;20045;-52
2022/07/11 06:11:59;;;;;;;6.32;4.63;;;20.90;64.00;;;;;;5040877;28;20041;-49
2022/07/11 06:14:31;;;;;;;10.15;4.70;;;20.90;64.00;;;;;;5052006;28;20060;-50
2022/07/11 06:17:01;;;;;;;4.93;4.50;;;20.90;64.20;;;;;;5046367;28;20045;-48
2022/07/11 06:19:30;;;;;;;5.15;4.22;;;21.00;64.00;;;;;;5038945;28;20099;-48
2022/07/11 06:21:56;;;;;;;3.90;3.55;;;21.00;64.10;;;;;;5043382;28;20041;-48
2022/07/11 06:24:23;;;;;;;3.75;3.20;;;21.00;64.20;;;;;;5037637;28;20099;-52
2022/07/11 06:27:03;;;;;;;4.47;3.72;;;21.00;64.20;;;;;;5023046;28;20077;-49
2022/07/11 06:29:30;;;;;;;4.25;3.42;;;21.10;64.10;;;;;;5046299;28;20172;-52
2022/07/11 06:31:56;;;;;;;6.18;3.42;;;21.10;64.10;;;;;;5047561;28;20045;-46
2022/07/11 06:34:31;;;;;;;4.28;3.50;;;21.20;64.00;;;;;;5041013;28;20072;-48
2022/07/11 06:36:59;;;;;;;4.57;3.60;;;21.30;63.90;;;;;;5041895;28;20052;-49
2022/07/11 06:39:27;;;;;;;5.68;4.07;;;21.30;64.00;;;;;;5044190;28;20079;-47
2022/07/11 06:41:56;;;;;;;5.88;3.42;;;21.30;63.90;;;;;;5051523;28;20044;-48
2022/07/11 06:44:29;;;;;;;4.57;3.78;;;21.40;63.90;;;;;;5042110;28;20099;-48
2022/07/11 06:46:58;;;;;;;4.80;3.30;;;21.50;63.60;;;;;;5032913;28;20033;-49
2022/07/11 06:49:29;;;;;;;4.22;3.83;;;21.50;63.30;;;;;;5043085;28;20037;-49
2022/07/11 06:51:56;;;;;;;6.32;3.45;;;21.60;63.10;;;;;;5051364;28;20041;-50
2022/07/11 06:54:30;;;;;;;7.55;4.82;;;21.60;63.10;;;;;;5042536;28;20128;-47
2022/07/11 06:56:58;;;;;;;4.03;3.65;;;21.60;63.00;;;;;;5029244;28;20041;-49
2022/07/11 06:59:28;;;;;;;4.00;3.38;;;21.70;63.10;;;;;;5042945;28;20500;-48
2022/07/11 07:02:00;;;;;;;11.45;3.55;;;21.60;62.90;;;;;;5051248;28;20428;-49
2022/07/11 07:04:31;;;;;;;4.43;3.67;;;21.60;63.00;;;;;;5033902;28;20492;-48
2022/07/11 07:07:01;;;;;;;6.80;3.70;;;21.60;63.00;;;;;;5043056;28;20276;-51
2022/07/11 07:09:29;;;;;;;5.43;4.25;;;21.60;62.90;;;;;;5043957;28;20063;-51
2022/07/11 07:11:55;;;;;;;4.45;4.00;;;21.60;62.90;;;;;;5044850;28;20497;-52
2022/07/11 07:14:22;;;;;;;6.57;4.15;;;21.50;63.20;;;;;;5039120;28;20086;-51
2022/07/11 07:16:51;;;;;;;5.18;3.70;;;21.50;63.20;;;;;;5042623;28;20037;-52
2022/07/11 07:19:20;;;;;;;6.33;3.63;;;21.50;63.50;;;;;;5051114;28;20069;-52
2022/07/11 07:21:47;;;;;;;5.25;4.10;;;21.40;63.80;;;;;;5036708;28;20388;-51
2022/07/11 07:24:15;;;;;;;5.53;3.85;;;21.40;64.00;;;;;;5028060;28;20064;-48
2022/07/11 07:26:46;;;;;;;6.22;4.88;;;21.40;64.10;;;;;;5039078;28;20091;-48
2022/07/11 07:29:17;;;;;;;6.30;4.13;;;21.40;64.30;;;;;;5050766;28;20086;-48
2022/07/11 07:31:46;;;;;;;9.45;4.70;;;21.40;64.40;;;;;;5048723;28;20087;-51
2022/07/11 07:34:16;;;;;;;5.88;4.80;;;21.40;64.50;;;;;;5040923;28;20033;-47
2022/07/11 07:36:42;;;;;;;7.80;4.78;;;21.40;64.50;;;;;;5042367;28;20114;-52
2022/07/11 07:39:13;;;;;;;6.22;4.35;;;21.40;64.70;;;;;;5051002;28;20044;-47
2022/07/11 07:41:40;;;;;;;6.45;5.22;;;21.50;64.70;;;;;;5028693;28;20045;-47
2022/07/11 07:44:11;;;;;;;7.07;4.63;;;21.50;64.70;;;;;;5050325;28;20506;-50
2022/07/11 07:46:40;;;;;;;4.95;4.45;;;21.50;64.60;;;;;;5048830;28;20100;-52
2022/07/11 07:49:10;;;;;;;;;;;21.50;64.50;;;;;;5050065;28;20465;-50
2022/07/11 07:51:38;;;;;;;5.20;3.95;;;21.60;64.30;;;;;;5044005;28;19924;-52
2022/07/11 07:54:07;;;;;;;5.90;4.20;;;21.60;64.40;;;;;;5046274;28;20094;-49
2022/07/11 07:56:36;;;;;;;6.43;3.80;;;21.60;64.70;;;;;;5054598;28;20561;-50
2022/07/11 07:59:05;;;;;;;6.30;5.28;;;21.70;64.80;;;;;;5030307;28;20307;-48
2022/07/11 08:01:35;;;;;;;;;;;21.70;64.80;;;;;;5039684;28;20416;-49
2022/07/11 08:04:08;;;;;;;5.20;3.97;;;21.90;64.60;;;;;;5042060;28;19921;-52
2022/07/11 08:06:36;;;;;;;4.38;3.97;;;22.00;64.20;;;;;;5054382;28;20040;-48
2022/07/11 08:09:07;;;;;;;5.10;4.13;;;22.10;64.20;;;;;;5047671;28;20061;-49
2022/07/11 08:11:34;;;;;;;8.45;4.32;;;22.20;63.90;;;;;;5042416;28;20040;-49
2022/07/11 08:14:03;;;;;;;4.70;4.25;;;22.30;63.90;;;;;;5045841;28;20099;-49
2022/07/11 08:16:31;;;;;;;4.68;4.18;;;22.40;63.60;;;;;;5054132;28;20033;-48
2022/07/11 08:19:00;;;;;;;5.07;3.65;;;22.60;63.90;;;;;;5045352;28;20046;-48
2022/07/11 08:21:28;;;;;;;6.40;4.72;;;22.70;62.80;;;;;;5043331;28;20037;-52
2022/07/11 08:23:57;;;;;;;8.35;3.97;;;22.80;62.40;;;;;;5036231;28;20073;-50
2022/07/11 08:26:24;;;;;;;4.18;3.60;;;22.90;62.20;;;;;;5033994;28;20050;-50
2022/07/11 08:29:04;;;;;;;4.60;3.10;;;22.90;61.90;;;;;;5028025;28;20100;-47
2022/07/11 08:31:31;;;;;;;5.20;3.42;;;23.00;61.40;;;;;;5046055;28;20069;-51
2022/07/11 08:34:04;;;;;;;7.82;4.25;;;23.00;61.10;;;;;;5051047;28;20044;-46
2022/07/11 08:36:34;;;;;;;5.20;3.83;;;23.10;61.10;;;;;;5053838;28;20442;-51
2022/07/11 08:39:02;;;;;;;3.72;3.42;;;23.10;61.00;;;;;;5033581;28;20077;-48
2022/07/11 08:41:31;;;;;;;3.72;3.22;;;23.10;60.90;;;;;;5042302;28;20037;-48
2022/07/11 08:44:06;;;;;;;4.90;2.78;;;23.10;60.90;;;;;;5051455;28;20044;-49
2022/07/11 08:46:33;;;;;;;6.00;3.10;;;23.10;60.60;;;;;;5053305;28;20111;-49
2022/07/11 08:49:03;;;;;;;2.97;2.65;;;23.10;60.50;;;;;;5036780;28;20041;-48
2022/07/11 08:51:37;;;;;;;2.97;2.78;;;23.10;60.50;;;;;;5045195;28;20037;-52
2022/07/11 08:54:11;;;;;;;3.42;3.13;;;23.00;60.70;;;;;;5052690;28;20040;-48
2022/07/11 08:56:38;;;;;;;3.55;3.25;;;23.00;60.80;;;;;;5040186;28;20038;-52
2022/07/11 08:59:12;;;;;;;3.88;3.40;;;22.90;60.90;;;;;;5048481;28;20069;-49
2022/07/11 09:01:44;;;;;;;3.30;3.08;;;22.90;61.00;;;;;;5047859;28;20049;-49
2022/07/11 09:04:15;;;;;;;4.38;2.95;;;22.80;61.20;;;;;;5048220;28;20095;-52
2022/07/11 09:06:42;;;;;;;3.05;2.75;;;22.70;61.20;;;;;;5042505;28;20040;-52
2022/07/11 09:09:10;;;;;;;5.07;3.03;;;22.60;61.60;;;;;;5044770;28;20045;-50
2022/07/11 09:11:54;;;;;;;3.47;3.08;;;22.60;61.60;;;;;;5053060;28;20060;-52
2022/07/11 09:14:29;;;;;;;3.78;3.10;;;22.60;61.90;;;;;;5037521;28;20033;-50
2022/07/11 09:17:08;;;;;;;3.33;3.05;;;22.50;61.80;;;;;;5037266;28;20493;-51
2022/07/11 09:19:39;;;;;;;3.55;3.25;;;22.50;62.00;;;;;;5044618;28;20045;-48
2022/07/11 09:25:19;;;;;;;4.22;3.22;;;22.40;62.70;;;;;;5035552;28;20127;-52
2022/07/11 09:27:52;;;;;;;2.90;2.70;;;22.40;62.80;;;;;;5044127;28;20041;-52
2022/07/11 09:30:31;;;;;;;3.33;2.85;;;22.30;62.80;;;;;;5051845;28;20063;-49
2022/07/11 09:33:03;;;;;;;3.53;3.22;;;22.40;63.20;;;;;;5041848;28;20656;-51
2022/07/11 09:35:40;;;;;;;3.92;2.83;;;22.40;63.60;;;;;;5037232;28;20116;-52
2022/07/11 09:38:16;;;;;;;3.63;3.28;;;22.50;63.60;;;;;;5041133;28;20059;-50
2022/07/11 09:40:44;;;;;;;4.88;3.33;;;22.60;63.60;;;;;;5052796;28;20045;-51
2022/07/11 09:43:11;;;;;;;3.67;3.38;;;22.70;63.30;;;;;;5045299;28;20103;-48
2022/07/11 09:45:39;;;;;;;3.13;2.83;;;22.90;62.80;;;;;;5041386;28;20044;-52
2022/07/11 09:48:09;;;;;;;4.05;3.08;;;23.10;62.90;;;;;;5043991;28;20491;-48
2022/07/11 09:50:36;;;;;;;2.95;2.75;;;23.30;62.00;;;;;;5047398;28;20049;-52
2022/07/11 09:53:10;;;;;;;3.50;3.22;;;23.50;61.60;;;;;;5031647;28;20456;-49
2022/07/11 09:55:47;;;;;;;3.25;2.67;;;23.70;60.60;;;;;;5034228;28;20427;-48
2022/07/11 09:58:18;;;;;;;4.20;2.97;;;23.80;60.10;;;;;;5043990;28;20116;-48
2022/07/11 10:00:47;;;;;;;3.15;2.95;;;23.90;59.70;;;;;;5041845;28;20041;-52
2022/07/11 10:03:14;;;;;;;2.92;2.72;;;24.00;59.90;;;;;;5035117;28;20052;-52
2022/07/11 10:06:00;;;;;;;2.60;2.40;;;24.00;58.90;;;;;;5043263;28;20069;-52
2022/07/11 10:08:33;;;;;;;3.45;3.25;;;24.00;58.90;;;;;;5052094;28;20480;-48
2022/07/11 10:10:59;;;;;;;3.05;2.67;;;24.00;58.60;;;;;;5036116;28;20038;-48
2022/07/11 10:13:29;;;;;;;2.83;2.65;;;23.90;58.60;;;;;;5038230;28;20500;-52
2022/07/11 10:16:00;;;;;;;3.90;2.85;;;23.90;58.60;;;;;;5043414;28;20037;-48
2022/07/11 10:18:45;;;;;;;3.50;2.92;;;23.80;58.80;;;;;;5052336;28;20377;-48
2022/07/11 10:21:24;;;;;;;4.15;3.10;;;23.70;58.90;;;;;;5038539;28;20076;-51
2022/07/11 10:24:21;;;;;;;3.05;2.85;;;23.60;59.00;;;;;;5043043;28;20044;-47
2022/07/11 10:27:15;;;;;;;3.08;2.72;;;23.60;59.20;;;;;;5031784;28;20095;-49
2022/07/11 10:29:51;;;;;;;2.63;2.40;;;23.60;59.30;;;;;;5025415;28;20037;-49
2022/07/11 10:32:25;;;;;;;2.53;2.33;;;23.60;59.60;;;;;;5038698;28;20048;-52
2022/07/11 10:35:09;;;;;;;2.50;2.30;;;23.60;59.70;;;;;;5043267;28;20041;-50
2022/07/11 10:37:51;;;;;;;3.90;2.15;;;23.60;59.20;;;;;;5045077;28;20619;-52
2022/07/11 10:40:37;;;;;;;;;;;23.70;59.40;;;;;;5039746;28;20045;-50
2022/07/11 10:43:05;;;;;;;5.25;2.25;;;23.70;59.40;;;;;;5043230;28;19920;-50
2022/07/11 10:45:56;;;;;;;2.90;1.55;;;23.70;59.00;;;;;;5051174;28;20052;-48
2022/07/11 10:48:24;;;;;;;2.30;2.20;;;23.80;58.80;;;;;;5036416;28;20400;-48
2022/07/11 10:51:17;;;;;;;2.35;2.10;;;23.80;58.90;;;;;;5036760;28;20038;-50
2022/07/11 10:53:48;;;;;;;;;;;23.80;58.70;;;;;;5035285;28;20038;-48
2022/07/11 10:56:41;;;;;;;1.60;1.50;;;23.90;59.00;;;;;;5067971;22;20324;-47
2022/07/11 10:59:23;;;;;;;2.92;1.88;;;23.90;58.80;;;;;;5031192;28;20055;-50
2022/07/11 11:02:11;;;;;;;2.83;1.50;;;23.90;58.60;;;;;;5031279;28;20103;-47
2022/07/11 11:04:48;;;;;;;2.22;2.03;;;24.00;58.40;;;;;;5030196;28;20072;-46
2022/07/11 11:07:37;;;;;;;2.17;2.08;;;24.00;58.30;;;;;;5050607;28;20090;-50
2022/07/11 11:10:33;;;;;;;1.35;1.27;;;24.10;58.40;;;;;;5034468;28;20057;-50
2022/07/11 11:13:13;;;;;;;1.88;1.77;;;24.10;58.40;;;;;;5042815;28;20102;-48
2022/07/11 11:15:40;;;;;;;2.00;1.90;;;24.20;58.20;;;;;;5040879;28;20037;-47
2022/07/11 11:18:25;;;;;;;1.95;1.85;;;24.20;58.00;;;;;;5034038;28;20050;-47
2022/07/11 11:21:07;;;;;;;2.65;2.10;;;24.30;57.60;;;;;;5042600;28;20057;-51
2022/07/11 11:24:01;;;;;;;4.22;2.38;;;24.30;57.60;;;;;;5043222;28;20108;-47
2022/07/11 11:26:49;;;;;;;2.17;1.98;;;24.30;57.60;;;;;;5028407;28;20037;-47
2022/07/11 11:29:21;;;;;;;2.78;1.75;;;24.30;57.60;;;;;;5046703;28;20060;-47
2022/07/11 11:31:54;;;;;;;2.20;2.10;;;24.30;58.00;;;;;;5046520;28;20158;-49
2022/07/11 11:34:21;;;;;;;2.33;2.10;;;24.20;58.00;;;;;;5051028;28;20076;-48
2022/07/11 11:36:56;;;;;;;2.80;2.17;;;24.30;58.00;;;;;;5032749;28;20076;-48
2022/07/11 11:39:31;;;;;;;2.53;2.05;;;24.30;58.10;;;;;;5037447;28;20108;-48
2022/07/11 11:42:06;;;;;;;2.47;2.38;;;24.30;58.30;;;;;;5048131;28;20053;-48
2022/07/11 11:44:34;;;;;;;3.03;2.70;;;24.20;58.20;;;;;;5039278;28;20052;-50
2022/07/11 11:47:03;;;;;;;2.38;2.17;;;24.20;58.10;;;;;;5034251;28;20065;-47
2022/07/11 11:49:44;;;;;;;4.82;2.50;;;24.30;58.10;;;;;;5042175;28;20037;-46
2022/07/11 11:52:12;;;;;;;2.75;2.50;;;24.30;58.00;;;;;;5050959;28;20496;-50
2022/07/11 11:54:39;;;;;;;3.65;2.80;;;24.40;58.00;;;;;;5046087;28;20099;-49
2022/07/11 11:57:08;;;;;;;3.47;2.20;;;24.40;57.70;;;;;;5032953;28;20418;-48
2022/07/11 11:59:40;;;;;;;2.45;2.33;;;24.40;57.60;;;;;;5042371;28;20119;-47
2022/07/11 12:02:08;;;;;;;2.55;2.35;;;24.50;57.50;;;;;;5050913;28;20045;-51
2022/07/11 12:04:36;;;;;;;2.65;2.45;;;24.50;57.20;;;;;;5037026;28;20442;-47
2022/07/11 12:07:04;;;;;;;3.00;2.63;;;24.50;57.10;;;;;;5042381;28;20045;-47
2022/07/11 12:09:46;;;;;;;2.50;2.30;;;24.40;56.90;;;;;;5043596;28;20090;-47
2022/07/11 12:12:44;;;;;;;2.40;2.20;;;24.30;56.80;;;;;;5033311;28;20048;-48
2022/07/11 12:16:39;;;;;;;2.15;1.70;;;24.30;56.90;;;;;;5039715;28;20492;-48
2022/07/11 12:18:24;;;;;;;2.67;2.40;;;24.30;57.00;;;;;;5050398;28;20489;-51
2022/07/11 12:20:51;;;;;;;2.58;2.20;;;24.30;57.10;;;;;;5035211;28;20456;-48
2022/07/11 12:23:20;;;;;;;2.17;2.03;;;24.30;57.20;;;;;;5021278;28;20042;-53
2022/07/11 12:25:52;;;;;;;2.60;2.40;;;24.30;57.10;;;;;;5038315;28;20207;-49
2022/07/11 12:28:21;;;;;;;2.30;2.10;;;24.30;57.30;;;;;;5034459;28;20041;-51
2022/07/11 12:30:55;;;;;;;2.63;2.17;;;24.30;57.30;;;;;;5050546;28;20037;-50
2022/07/11 12:33:25;;;;;;;3.47;2.70;;;24.40;57.20;;;;;;5041445;28;20116;-48
2022/07/11 12:35:57;;;;;;;2.30;2.10;;;24.50;57.20;;;;;;5045090;28;20041;-49
2022/07/11 12:38:26;;;;;;;2.40;2.30;;;24.50;57.30;;;;;;5048140;28;20155;-53
2022/07/11 12:41:04;;;;;;;2.65;2.45;;;24.60;56.90;;;;;;5036785;28;20045;-47
2022/07/11 12:46:29;;;;;;;3.08;2.88;;;24.80;56.90;;;;;;5039591;28;20087;-47
2022/07/11 12:49:00;;;;;;;2.97;2.70;;;24.90;57.00;;;;;;5045844;28;20033;-51
2022/07/11 12:51:35;;;;;;;2.50;2.33;;;25.00;56.80;;;;;;5045337;28;20041;-48
2022/07/11 12:54:10;;;;;;;2.97;2.72;;;25.10;56.60;;;;;;5045130;28;20401;-47
2022/07/11 12:56:39;;;;;;;3.95;2.22;;;25.20;56.30;;;;;;5053386;28;20041;-49
2022/07/11 12:59:22;;;;;;;2.53;2.33;;;25.30;56.40;;;;;;5040388;28;20058;-48
2022/07/11 13:02:03;;;;;;;2.70;2.35;;;25.40;55.90;;;;;;5034856;28;20069;-48
2022/07/11 13:04:48;;;;;;;4.68;2.60;;;25.50;55.60;;;;;;5035072;28;20046;-48
2022/07/11 13:10:26;;;;;;;2.97;2.17;;;25.90;55.10;;;;;;5037928;28;20037;-48
2022/07/11 13:12:54;;;;;;;2.33;2.17;;;25.90;55.00;;;;;;5045209;28;20033;-51
2022/07/11 13:15:24;;;;;;;3.00;2.80;;;26.00;54.60;;;;;;5052930;28;20485;-47
2022/07/11 13:17:53;;;;;;;2.38;2.28;;;26.10;54.10;;;;;;5038770;28;20042;-47
2022/07/11 13:20:24;;;;;;;2.78;2.35;;;26.10;53.80;;;;;;5036130;28;20115;-50
2022/07/11 13:22:56;;;;;;;3.08;2.88;;;26.20;53.50;;;;;;5037985;28;20091;-47